Shoyomaru — JNWJ — position and weather

sailwx.info

Track history (hours):
 
Tides and Currents Weather Stations Pressure Air Temp Water Temp Dewpoint Dewpoint Depression Visibility Wind Speed Wind Dir Waves Ship Positions

Shoyomaru

Last reported at 2018-Jul-10 07:46 UTC. Time now 2018-Jul-19 19:12 UTC.
Position N 34°25' E 134°22'.
Warning: this ship's position is 9 days out of date.

Length 89 m; draft 5.5 m.

Type: Tanker. MMSI: 432464000.

Date/timePositionNaut miles runAvg speedWind from/ knotsBaromVisibWave heightAir tempDewpointWater temp
2018-Jul-10 07:46N 34°25' E 134°22'712.0
2018-Jul-10 07:10N 34°28' E 134°30'212.1
2018-Jul-10 07:00N 34°29' E 134°32'812.1
2018-Jul-10 06:23N 34°31' E 134°41'511.9
2018-Jul-10 05:58N 34°33' E 134°46'712.4
2018-Jul-10 05:24N 34°36' E 134°54'512.3
2018-Jul-10 05:01N 34°38' E 134°60'510.2
2018-Jul-10 04:31N 34°35' E 135°05'611.2
2018-Jul-10 04:00N 34°29' E 135°04'612.0
2018-Jul-10 03:30N 34°24' E 135°02'611.8
2018-Jul-10 03:00N 34°18' E 134°60'5 9.1
2018-Jul-10 02:30N 34°14' E 134°59'5 9.9
2018-Jul-10 02:01N 34°09' E 134°60'611.6
2018-Jul-10 01:30N 34°03' E 135°00'611.5
2018-Jul-10 00:59N 33°57' E 135°01'611.3
2018-Jul-10 00:26N 33°51' E 135°01'  
2018-Jul-05 21:17N 34°24' E 134°20'512.2
2018-Jul-05 20:54N 34°26' E 134°26'512.4
2018-Jul-05 20:30N 34°28' E 134°31'812.2
2018-Jul-05 19:50N 34°31' E 134°40'412.3
2018-Jul-05 19:30N 34°33' E 134°45'613.1
2018-Jul-05 19:00N 34°35' E 134°52'713.1
2018-Jul-05 18:30N 34°38' E 134°60'611.9
2018-Jul-05 18:00N 34°34' E 135°05'612.1
2018-Jul-05 17:30N 34°28' E 135°05'612.8
2018-Jul-05 17:00N 34°22' E 135°02'713.1
2018-Jul-05 16:30N 34°16' E 134°59'612.1
2018-Jul-05 16:00N 34°10' E 135°00'611.6
2018-Jul-05 15:30N 34°04' E 135°00'612.0
2018-Jul-05 15:00N 33°58' E 135°01'612.1
2018-Jul-05 14:30N 33°52' E 135°02'  
2018-Jul-02 04:44N 33°49' E 135°03'210.9
2018-Jul-02 04:30N 33°51' E 135°01'510.1
2018-Jul-02 04:00N 33°56' E 135°01'510.5
2018-Jul-02 03:30N 34°01' E 135°01'510.2
2018-Jul-02 03:00N 34°06' E 134°60'611.0
2018-Jul-02 02:30N 34°12' E 134°59'611.3
2018-Jul-02 02:00N 34°17' E 134°59'510.8
2018-Jul-02 01:30N 34°23' E 134°60'511.0
2018-Jul-02 01:00N 34°28' E 135°01'611.0
2018-Jul-02 00:30N 34°33' E 135°03'6 7.2
2018-Jul-01 23:43N 34°36' E 134°56'411.6
2018-Jul-01 23:21N 34°34' E 134°51'411.8
2018-Jul-01 23:00N 34°33' E 134°47'812.2
2018-Jul-01 22:21N 34°29' E 134°38'412.4
2018-Jul-01 22:00N 34°28' E 134°33'  
Track history (hours):
 
Tides and Currents Weather Stations Pressure Air Temp Water Temp Dewpoint Dewpoint Depression Visibility Wind Speed Wind Dir Waves Ship Positions

Shoyomaru

Last reported at 2018-Jul-10 07:46 UTC. Time now 2018-Jul-19 19:12 UTC.
Position N 34°25' E 134°22'.
Warning: this ship's position is 9 days out of date.

Length 89 m; draft 5.5 m.

Type: Tanker. MMSI: 432464000.

Date/timePositionNaut miles runAvg speedWind from/ knotsBaromVisibWave heightAir tempDewpointWater temp
2018-Jul-10 07:46N 34°25' E 134°22'712.0
2018-Jul-10 07:10N 34°28' E 134°30'212.1
2018-Jul-10 07:00N 34°29' E 134°32'812.1
2018-Jul-10 06:23N 34°31' E 134°41'511.9
2018-Jul-10 05:58N 34°33' E 134°46'712.4
2018-Jul-10 05:24N 34°36' E 134°54'512.3
2018-Jul-10 05:01N 34°38' E 134°60'510.2
2018-Jul-10 04:31N 34°35' E 135°05'611.2
2018-Jul-10 04:00N 34°29' E 135°04'612.0
2018-Jul-10 03:30N 34°24' E 135°02'611.8
2018-Jul-10 03:00N 34°18' E 134°60'5 9.1
2018-Jul-10 02:30N 34°14' E 134°59'5 9.9
2018-Jul-10 02:01N 34°09' E 134°60'611.6
2018-Jul-10 01:30N 34°03' E 135°00'611.5
2018-Jul-10 00:59N 33°57' E 135°01'611.3
2018-Jul-10 00:26N 33°51' E 135°01'  
2018-Jul-05 21:17N 34°24' E 134°20'512.2
2018-Jul-05 20:54N 34°26' E 134°26'512.4
2018-Jul-05 20:30N 34°28' E 134°31'812.2
2018-Jul-05 19:50N 34°31' E 134°40'412.3
2018-Jul-05 19:30N 34°33' E 134°45'613.1
2018-Jul-05 19:00N 34°35' E 134°52'713.1
2018-Jul-05 18:30N 34°38' E 134°60'611.9
2018-Jul-05 18:00N 34°34' E 135°05'612.1
2018-Jul-05 17:30N 34°28' E 135°05'612.8
2018-Jul-05 17:00N 34°22' E 135°02'713.1
2018-Jul-05 16:30N 34°16' E 134°59'612.1
2018-Jul-05 16:00N 34°10' E 135°00'611.6
2018-Jul-05 15:30N 34°04' E 135°00'612.0
2018-Jul-05 15:00N 33°58' E 135°01'612.1
2018-Jul-05 14:30N 33°52' E 135°02'  
2018-Jul-02 04:44N 33°49' E 135°03'210.9
2018-Jul-02 04:30N 33°51' E 135°01'510.1
2018-Jul-02 04:00N 33°56' E 135°01'510.5
2018-Jul-02 03:30N 34°01' E 135°01'510.2
2018-Jul-02 03:00N 34°06' E 134°60'611.0
2018-Jul-02 02:30N 34°12' E 134°59'611.3
2018-Jul-02 02:00N 34°17' E 134°59'510.8
2018-Jul-02 01:30N 34°23' E 134°60'511.0
2018-Jul-02 01:00N 34°28' E 135°01'611.0
2018-Jul-02 00:30N 34°33' E 135°03'6 7.2
2018-Jul-01 23:43N 34°36' E 134°56'411.6
2018-Jul-01 23:21N 34°34' E 134°51'411.8
2018-Jul-01 23:00N 34°33' E 134°47'812.2
2018-Jul-01 22:21N 34°29' E 134°38'412.4
2018-Jul-01 22:00N 34°28' E 134°33'  

Dump ship's entire track history